CEST,Max TemperatureF,Mean TemperatureF,Min TemperatureF,Max Dew PointF,MeanDew PointF,Min DewpointF,Max Humidity, Mean Humidity, Min Humidity, Max Sea Level PressureIn, Mean Sea Level PressureIn, Min Sea Level PressureIn, Max VisibilityMiles, Mean VisibilityMiles, Min VisibilityMiles, Max Wind SpeedMPH, Mean Wind SpeedMPH, Max Gust SpeedMPH,PrecipitationIn, CloudCover, Events, WindDirDegrees
2013-6-1,66,60,55,57,54,52,100,85,68,29.77,29.72,29.68,6,6,3,13,6,,0.00,4,Rain-Thunderstorm,158
2013-6-2,71,63,55,61,57,52,100,84,60,29.95,29.84,29.77,6,6,4,12,3,,0.00,2,Rain,244
2013-6-3,69,62,55,59,56,52,100,82,53,29.95,29.93,29.89,6,6,4,9,3,,0.00,3,Rain-Thunderstorm,95
2013-6-4,71,63,55,61,56,52,94,81,50,29.98,29.93,29.92,6,6,4,12,3,,0.00,4,Rain-Thunderstorm,301
2013-6-5,71,64,57,61,58,52,100,77,50,30.04,30.00,29.95,6,5,2,10,2,,0.00,3,Fog-Rain-Thunderstorm,250
2013-6-6,77,67,57,63,56,52,94,71,47,30.06,30.03,30.01,6,6,6,10,3,,0.00,1,,250
2013-6-7,78,68,57,59,55,52,94,64,39,30.01,29.99,29.95,6,6,6,13,4,,0.00,1,,325
2013-6-8,80,70,60,63,59,55,94,70,44,29.98,29.96,29.92,6,6,6,12,4,,0.00,2,,247
2013-6-9,75,67,59,64,56,41,94,69,33,29.95,29.91,29.86,6,6,6,15,5,,0.00,3,Rain,186
2013-6-10,71,66,62,61,58,54,94,74,56,29.89,29.87,29.83,6,6,4,12,6,,0.00,3,,209
2013-6-11,75,66,57,63,57,54,94,72,50,29.95,29.90,29.89,6,6,6,12,4,,0.00,3,,285
2013-6-12,84,72,59,61,52,45,94,56,27,29.98,29.95,29.92,6,6,6,16,5,23,0.00,1,,13
2013-6-13,86,73,60,54,50,46,68,45,27,30.04,29.99,29.95,,,,10,5,,0.00,,,353
2013-6-14,84,72,59,57,55,52,82,55,37,30.04,30.00,29.98,6,6,6,12,4,,0.00,1,,305
2013-6-15,82,72,62,64,61,55,94,67,51,30.04,30.02,30.01,6,6,6,10,4,,0.00,1,,207
2013-6-16,84,74,64,64,62,59,88,68,48,30.06,30.04,30.01,6,6,6,9,2,,0.00,1,,222
2013-6-17,91,78,64,68,63,55,94,64,40,30.04,30.02,29.98,6,6,6,9,3,,0.00,1,,259
2013-6-18,91,80,69,73,65,59,78,60,41,30.01,29.99,29.98,6,6,6,12,3,,0.00,1,,209
2013-6-19,93,82,71,70,65,61,88,60,36,30.01,30.00,29.98,6,6,6,9,2,,0.00,1,,242
2013-6-20,93,81,69,73,65,61,94,61,34,30.01,30.00,29.98,6,6,6,12,3,,0.00,1,,208
2013-6-21,87,78,68,70,65,59,94,68,40,30.04,30.01,29.98,6,6,6,10,4,,0.00,1,,197
2013-6-22,82,74,66,68,63,57,94,71,42,30.04,30.02,29.98,6,6,6,9,3,,0.00,3,,249
2013-6-23,84,75,66,68,65,59,100,75,45,30.04,29.98,29.95,6,6,6,12,4,,0.00,2,,231
2013-6-24,73,68,64,66,62,57,100,78,57,29.95,29.90,29.86,6,6,5,14,8,22,0.00,2,,194
2013-6-25,80,70,59,61,53,45,88,60,28,30.01,29.97,29.95,6,6,6,15,5,26,0.00,2,,314
2013-6-26,77,68,59,63,56,48,88,67,38,30.06,30.03,30.01,6,6,6,18,4,30,0.00,2,Thunderstorm,68
2013-6-27,77,66,55,59,54,48,94,66,36,30.06,30.05,30.01,6,6,6,12,6,,0.00,2,,332
2013-6-28,77,68,59,66,57,52,100,72,41,30.04,30.00,29.95,6,6,6,20,7,31,0.00,3,Rain-Thunderstorm,160
2013-6-29,77,66,55,59,50,41,94,60,28,30.01,29.98,29.95,6,6,6,15,7,25,0.00,2,,5
2013-6-30,80,68,57,50,48,43,77,48,28,30.06,30.02,29.98,6,6,6,10,4,,0.00,1,,7